Time;durP1;ratioP1;P1;durP2;ratioP2;P2;SDS_P1;SDS_P2;PMS_P1;PMS_P2;Temp;Humidity;BMP_temperature;BMP_pressure;BME280_temperature;BME280_humidity;BME280_pressure;Samples;Min_cycle;Max_cycle;Signal;HPM_P1;HPM_P2
2021/07/18 00:01:40;;;;;;;2.20;1.13;;;;;;;-142.37;100.00;59669.53;5033257;28;20022;-67
2021/07/18 00:04:05;;;;;;;1.42;0.90;;;;;;;-142.37;100.00;59669.53;5032981;28;20048;-67
2021/07/18 00:06:31;;;;;;;2.17;0.88;;;;;;;-142.37;100.00;59669.53;5033015;28;20030;-66
2021/07/18 00:08:56;;;;;;;1.63;0.82;;;;;;;-142.37;100.00;59669.53;5033072;28;20021;-66
2021/07/18 00:11:21;;;;;;;1.20;0.70;;;;;;;-142.37;100.00;59669.53;5032338;28;20057;-66
2021/07/18 00:13:47;;;;;;;1.65;1.00;;;;;;;-142.37;100.00;59669.53;5032026;28;20036;-66
2021/07/18 00:16:12;;;;;;;1.70;1.00;;;;;;;-142.37;100.00;59669.53;5032918;28;20029;-67
2021/07/18 00:18:37;;;;;;;1.63;0.95;;;;;;;-142.37;100.00;59669.53;5018897;28;20026;-66
2021/07/18 00:21:03;;;;;;;1.13;0.98;;;;;;;-142.37;100.00;59669.53;5013510;28;20033;-66
2021/07/18 00:23:28;;;;;;;0.95;0.70;;;;;;;-142.37;100.00;59669.53;5013526;28;20399;-65
2021/07/18 00:25:53;;;;;;;2.67;1.20;;;;;;;-142.37;100.00;59669.53;5013122;28;20040;-65
2021/07/18 00:28:19;;;;;;;0.98;0.88;;;;;;;-142.37;100.00;59669.53;5013223;28;20033;-65
2021/07/18 00:30:44;;;;;;;1.48;0.98;;;;;;;-142.37;100.00;59669.53;5014419;28;20548;-66
2021/07/18 00:33:09;;;;;;;1.70;0.80;;;;;;;-142.37;100.00;59669.53;5017137;28;20049;-66
2021/07/18 00:35:35;;;;;;;1.27;0.75;;;;;;;-142.37;100.00;59669.53;5016938;28;20461;-66
2021/07/18 00:38:01;;;;;;;1.00;0.73;;;;;;;-142.37;100.00;59669.53;5017054;28;20049;-65
2021/07/18 00:40:26;;;;;;;1.63;1.00;;;;;;;-142.37;100.00;59669.53;5017434;28;20057;-66
2021/07/18 00:42:52;;;;;;;1.45;1.08;;;;;;;-142.37;100.00;59669.53;5036416;28;20021;-66
2021/07/18 00:45:17;;;;;;;1.88;1.25;;;;;;;-142.37;100.00;59669.53;5035342;28;20057;-67
2021/07/18 00:47:42;;;;;;;1.42;0.88;;;;;;;-142.37;100.00;59669.53;5036698;28;20536;-66
2021/07/18 00:50:17;;;;;;;1.00;0.82;;;;;;;-142.37;100.00;59669.53;5036409;28;20022;-66
2021/07/18 00:52:43;;;;;;;1.13;0.82;;;;;;;-142.37;100.00;59669.53;5036525;28;20021;-66
2021/07/18 00:55:10;;;;;;;1.65;0.73;;;;;;;-142.37;100.00;59669.53;5036123;28;20475;-66
2021/07/18 00:57:37;;;;;;;1.38;1.00;;;;;;;-142.37;100.00;59669.53;5036384;28;20033;-66
2021/07/18 01:00:09;;;;;;;1.48;0.82;;;;;;;-142.37;100.00;59669.53;5035664;28;20042;-66
2021/07/18 01:02:36;;;;;;;3.33;0.88;;;;;;;-142.37;100.00;59669.53;5036189;28;20037;-66
2021/07/18 01:05:02;;;;;;;2.00;1.05;;;;;;;-142.37;100.00;59669.53;5036142;28;20029;-66
2021/07/18 01:07:28;;;;;;;2.50;1.20;;;;;;;-142.37;100.00;59669.53;5036205;28;20090;-66
2021/07/18 01:09:54;;;;;;;1.63;1.00;;;;;;;-142.37;100.00;59669.53;5036096;28;20057;-66
2021/07/18 01:12:20;;;;;;;1.48;1.13;;;;;;;-142.37;100.00;59669.53;5035653;28;20028;-66
2021/07/18 01:14:48;;;;;;;1.92;1.17;;;;;;;-142.37;100.00;59669.53;5036104;28;20468;-66
2021/07/18 01:17:13;;;;;;;1.48;0.90;;;;;;;-142.37;100.00;59669.53;5034011;28;20018;-66
2021/07/18 01:19:40;;;;;;;1.50;0.85;;;;;;;-142.37;100.00;59669.53;5016065;28;20382;-65
2021/07/18 01:22:05;;;;;;;1.40;1.00;;;;;;;-142.37;100.00;59669.53;5016228;28;20029;-65
2021/07/18 01:24:32;;;;;;;1.48;1.10;;;;;;;-142.37;100.00;59669.53;5016192;28;20022;-65
2021/07/18 01:26:59;;;;;;;0.77;0.55;;;;;;;-142.37;100.00;59669.53;5031912;28;20030;-66
2021/07/18 01:29:27;;;;;;;1.50;1.00;;;;;;;-142.37;100.00;59669.53;5016120;28;20026;-66
2021/07/18 01:31:53;;;;;;;0.93;0.90;;;;;;;-142.37;100.00;59669.53;5021025;28;20022;-65
2021/07/18 01:34:18;;;;;;;3.38;0.90;;;;;;;-142.37;100.00;59669.53;5015907;28;20030;-65
2021/07/18 01:36:43;;;;;;;1.92;0.90;;;;;;;-142.37;100.00;59669.53;5015722;28;20033;-66
2021/07/18 01:39:10;;;;;;;1.60;0.85;;;;;;;-142.37;100.00;59669.53;5015901;28;20479;-66
2021/07/18 01:41:36;;;;;;;1.58;0.80;;;;;;;-142.37;100.00;59669.53;5015129;28;20124;-66
2021/07/18 01:44:03;;;;;;;1.45;0.95;;;;;;;-142.37;100.00;59669.53;5015646;28;20104;-66
2021/07/18 01:46:30;;;;;;;1.58;0.90;;;;;;;-142.37;100.00;59669.53;5015710;28;20030;-66
2021/07/18 01:48:55;;;;;;;1.58;0.80;;;;;;;-142.37;100.00;59669.53;5015818;28;20091;-66
2021/07/18 01:51:24;;;;;;;1.15;0.70;;;;;;;-142.37;100.00;59669.53;5015492;28;20472;-66
2021/07/18 01:53:54;;;;;;;0.95;0.82;;;;;;;-142.37;100.00;59669.53;5020142;28;20395;-66
2021/07/18 01:56:22;;;;;;;2.10;1.00;;;;;;;-142.37;100.00;59669.53;5035246;28;20087;-66
2021/07/18 01:58:48;;;;;;;2.28;1.10;;;;;;;-142.37;100.00;59669.53;5035074;28;20029;-66
2021/07/18 02:01:14;;;;;;;1.20;0.75;;;;;;;-142.37;100.00;59669.53;5035128;28;20029;-65
2021/07/18 02:03:40;;;;;;;1.15;0.73;;;;;;;-142.37;100.00;59669.53;5035192;28;20035;-65
2021/07/18 02:06:05;;;;;;;0.90;0.80;;;;;;;-142.37;100.00;59669.53;5034720;28;20097;-65
2021/07/18 02:08:30;;;;;;;1.02;0.63;;;;;;;-142.37;100.00;59669.53;5035303;28;20021;-66
2021/07/18 02:10:56;;;;;;;1.88;1.00;;;;;;;-142.37;100.00;59669.53;5033911;28;20415;-66
2021/07/18 02:13:21;;;;;;;2.03;1.02;;;;;;;-142.37;100.00;59669.53;5033655;28;20064;-64
2021/07/18 02:15:47;;;;;;;1.70;0.88;;;;;;;-142.37;100.00;59669.53;5033874;28;20025;-65
2021/07/18 02:18:13;;;;;;;1.58;1.10;;;;;;;-142.37;100.00;59669.53;5024932;28;20029;-65
2021/07/18 02:20:38;;;;;;;1.25;0.95;;;;;;;-142.37;100.00;59669.53;5015254;28;20040;-65
2021/07/18 02:23:04;;;;;;;3.05;0.82;;;;;;;-142.37;100.00;59669.53;5014880;28;20030;-65
2021/07/18 02:25:30;;;;;;;1.50;1.08;;;;;;;-142.37;100.00;59669.53;5014993;28;20376;-65
2021/07/18 02:27:55;;;;;;;1.98;0.82;;;;;;;-142.37;100.00;59669.53;5014923;28;20080;-66
2021/07/18 02:30:22;;;;;;;1.30;0.77;;;;;;;-142.37;100.00;59669.53;5014500;28;20026;-65
2021/07/18 02:32:52;;;;;;;1.52;0.90;;;;;;;-142.37;100.00;59669.53;5014933;28;20105;-65
2021/07/18 02:35:19;;;;;;;2.25;0.90;;;;;;;-142.37;100.00;59669.53;5014420;28;20084;-65
2021/07/18 02:37:45;;;;;;;1.75;0.95;;;;;;;-142.37;100.00;59669.53;5013420;28;20038;-66
2021/07/18 02:40:13;;;;;;;0.95;0.70;;;;;;;-142.37;100.00;59669.53;5014584;28;20121;-65
2021/07/18 02:42:39;;;;;;;1.63;1.00;;;;;;;-142.37;100.00;59669.53;5014856;28;20041;-65
2021/07/18 02:45:12;;;;;;;1.67;1.05;;;;;;;-142.37;100.00;59669.53;5014614;28;20181;-65
2021/07/18 02:47:38;;;;;;;1.25;0.68;;;;;;;-142.37;100.00;59669.53;5015092;28;20026;-65
2021/07/18 02:50:05;;;;;;;1.00;0.73;;;;;;;-142.37;100.00;59669.53;5017923;28;20032;-65
2021/07/18 02:52:32;;;;;;;1.23;0.80;;;;;;;-142.37;100.00;59669.53;5033788;28;20025;-65
2021/07/18 02:54:57;;;;;;;1.40;1.02;;;;;;;-142.37;100.00;59669.53;5032990;28;20028;-66
2021/07/18 02:57:22;;;;;;;1.45;0.90;;;;;;;-142.37;100.00;59669.53;5034114;28;20033;-64
2021/07/18 02:59:47;;;;;;;1.48;0.93;;;;;;;-142.37;100.00;59669.53;5033899;28;20048;-64
2021/07/18 03:02:13;;;;;;;1.52;1.00;;;;;;;-142.37;100.00;59669.53;5033510;28;20104;-64
2021/07/18 03:04:38;;;;;;;1.75;1.00;;;;;;;-142.37;100.00;59669.53;5034107;28;20423;-65
2021/07/18 03:07:04;;;;;;;1.30;0.80;;;;;;;-142.37;100.00;59669.53;5033816;28;20041;-65
2021/07/18 03:09:29;;;;;;;0.98;0.80;;;;;;;-142.37;100.00;59669.53;5034058;28;20037;-65
2021/07/18 03:11:54;;;;;;;1.35;0.63;;;;;;;-142.37;100.00;59669.53;5034018;28;20104;-65
2021/07/18 03:14:20;;;;;;;1.50;0.73;;;;;;;-142.37;100.00;59669.53;5033589;28;20026;-66
2021/07/18 03:16:47;;;;;;;2.00;0.90;;;;;;;-142.37;100.00;59669.53;5034000;28;20104;-66
2021/07/18 03:19:13;;;;;;;2.67;1.00;;;;;;;-142.37;100.00;59669.53;5015667;28;20030;-67
2021/07/18 03:21:39;;;;;;;0.90;0.70;;;;;;;-142.37;100.00;59669.53;5013989;28;20362;-67
2021/07/18 03:24:05;;;;;;;2.42;1.10;;;;;;;-142.37;100.00;59669.53;5013791;28;20044;-66
2021/07/18 03:26:31;;;;;;;1.55;0.80;;;;;;;-142.37;100.00;59669.53;5014309;28;20018;-65
2021/07/18 03:28:56;;;;;;;1.00;0.60;;;;;;;-142.37;100.00;59669.53;5013697;28;20045;-65
2021/07/18 03:31:22;;;;;;;2.20;1.10;;;;;;;-142.37;100.00;59669.53;5033208;28;20026;-65
2021/07/18 03:33:47;;;;;;;1.65;1.02;;;;;;;-142.37;100.00;59669.53;5014464;28;20088;-65
2021/07/18 03:36:13;;;;;;;1.00;0.63;;;;;;;-142.37;100.00;59669.53;5013416;28;20409;-66
2021/07/18 03:38:38;;;;;;;1.42;0.70;;;;;;;-142.37;100.00;59669.53;5013755;28;20034;-66
2021/07/18 03:41:04;;;;;;;1.00;0.63;;;;;;;-142.37;100.00;59669.53;5012977;28;20034;-65
2021/07/18 03:43:29;;;;;;;1.45;0.70;;;;;;;-142.37;100.00;59669.53;5013493;28;20485;-65
2021/07/18 03:45:55;;;;;;;1.48;0.80;;;;;;;-142.37;100.00;59669.53;5013452;28;20022;-65
2021/07/18 03:48:20;;;;;;;1.08;0.70;;;;;;;-142.37;100.00;59669.53;5029591;28;20025;-66
2021/07/18 03:50:47;;;;;;;1.40;0.77;;;;;;;-142.37;100.00;59669.53;5033446;28;20029;-66
2021/07/18 03:53:12;;;;;;;1.15;0.80;;;;;;;-142.37;100.00;59669.53;5033551;28;20029;-66
2021/07/18 03:55:38;;;;;;;0.77;0.50;;;;;;;-142.37;100.00;59669.53;5033215;28;20052;-66
2021/07/18 03:58:03;;;;;;;1.65;0.85;;;;;;;-142.37;100.00;59669.53;5031667;28;20079;-66
2021/07/18 04:00:29;;;;;;;1.73;0.73;;;;;;;-142.37;100.00;59669.53;5033009;28;20069;-65
2021/07/18 04:02:55;;;;;;;1.95;0.82;;;;;;;-142.37;100.00;59669.53;5032995;28;20036;-64
2021/07/18 04:05:20;;;;;;;1.88;0.90;;;;;;;-142.37;100.00;59669.53;5032804;28;20472;-65
2021/07/18 04:07:46;;;;;;;2.20;0.70;;;;;;;-142.37;100.00;59669.53;5033294;28;20076;-65
2021/07/18 04:10:12;;;;;;;1.08;0.80;;;;;;;-142.37;100.00;59669.53;5032763;28;20028;-65
2021/07/18 04:12:37;;;;;;;2.78;0.80;;;;;;;-142.37;100.00;59669.53;5033074;28;20109;-65
2021/07/18 04:15:03;;;;;;;0.88;0.70;;;;;;;-142.37;100.00;59669.53;5033022;28;20563;-66
2021/07/18 04:17:28;;;;;;;0.75;0.40;;;;;;;-142.37;100.00;59669.53;5033162;28;20108;-66
2021/07/18 04:19:53;;;;;;;1.08;0.63;;;;;;;-142.37;100.00;59669.53;5032902;28;20029;-66
2021/07/18 04:22:19;;;;;;;0.70;0.45;;;;;;;-142.37;100.00;59669.53;5033050;28;20468;-67
2021/07/18 04:24:44;;;;;;;0.98;0.50;;;;;;;-142.37;100.00;59669.53;5032631;28;20028;-67
2021/07/18 04:27:10;;;;;;;0.73;0.73;;;;;;;-142.37;100.00;59669.53;5032953;28;20026;-66
2021/07/18 04:29:36;;;;;;;1.15;0.77;;;;;;;-142.37;100.00;59669.53;5032856;28;20026;-66
2021/07/18 04:32:02;;;;;;;0.70;0.65;;;;;;;-142.37;100.00;59669.53;5032572;28;20080;-67
2021/07/18 04:34:27;;;;;;;1.45;0.70;;;;;;;-142.37;100.00;59669.53;5032433;28;20480;-67
2021/07/18 04:36:52;;;;;;;1.58;1.10;;;;;;;-142.37;100.00;59669.53;5032683;28;20025;-65
2021/07/18 04:39:18;;;;;;;1.17;0.60;;;;;;;-142.37;100.00;59669.53;5032559;28;20380;-65
2021/07/18 04:41:43;;;;;;;1.23;0.57;;;;;;;-142.37;100.00;59669.53;5016900;28;20030;-64
2021/07/18 04:44:09;;;;;;;0.50;0.40;;;;;;;-142.37;100.00;59669.53;5022166;28;20044;-65
2021/07/18 04:46:34;;;;;;;0.88;0.57;;;;;;;-142.37;100.00;59669.53;5033026;28;20021;-65
2021/07/18 04:49:00;;;;;;;0.63;0.45;;;;;;;-142.37;100.00;59669.53;5031072;28;20029;-65
2021/07/18 04:51:25;;;;;;;1.95;0.77;;;;;;;-142.37;100.00;59669.53;5025710;28;20018;-66
2021/07/18 04:53:50;;;;;;;0.80;0.70;;;;;;;-142.37;100.00;59669.53;5012712;28;20488;-66
2021/07/18 04:56:16;;;;;;;2.25;0.80;;;;;;;-142.37;100.00;59669.53;5012782;28;20026;-66
2021/07/18 04:58:42;;;;;;;1.23;0.73;;;;;;;-142.37;100.00;59669.53;5012938;28;20441;-67
2021/07/18 05:01:08;;;;;;;0.60;0.40;;;;;;;-142.37;100.00;59669.53;5011799;28;20033;-67
2021/07/18 05:03:34;;;;;;;0.55;0.50;;;;;;;-142.37;100.00;59669.53;5012967;28;20054;-67
2021/07/18 05:05:59;;;;;;;1.10;0.50;;;;;;;-142.37;100.00;59669.53;5011653;28;20026;-66
2021/07/18 05:08:25;;;;;;;0.88;0.65;;;;;;;-142.37;100.00;59669.53;5012915;28;20081;-66
2021/07/18 05:10:51;;;;;;;0.50;0.30;;;;;;;-142.37;100.00;59669.53;5012843;28;20026;-65
2021/07/18 05:13:16;;;;;;;1.48;1.00;;;;;;;-142.37;100.00;59669.53;5012911;28;20033;-65
2021/07/18 05:15:41;;;;;;;0.82;0.47;;;;;;;-142.37;100.00;59669.53;5012709;28;20075;-65
2021/07/18 05:18:11;;;;;;;2.45;0.45;;;;;;;-142.37;100.00;59669.53;5024651;28;20048;-65
2021/07/18 05:20:37;;;;;;;1.08;0.90;;;;;;;-142.37;100.00;59669.53;5034652;28;20030;-66
2021/07/18 05:23:02;;;;;;;1.58;0.55;;;;;;;-142.37;100.00;59669.53;5034934;28;20071;-65
2021/07/18 05:25:28;;;;;;;0.38;0.30;;;;;;;-142.37;100.00;59669.53;5015955;28;20045;-65
2021/07/18 05:27:53;;;;;;;0.65;0.60;;;;;;;-142.37;100.00;59669.53;5016132;28;20029;-65
2021/07/18 05:30:18;;;;;;;0.63;0.47;;;;;;;-142.37;100.00;59669.53;5016105;28;20033;-66
2021/07/18 05:32:44;;;;;;;1.52;0.60;;;;;;;-142.37;100.00;59669.53;5016179;28;20038;-66
2021/07/18 05:35:11;;;;;;;1.08;0.35;;;;;;;-142.37;100.00;59669.53;5015963;28;20161;-67
2021/07/18 05:37:37;;;;;;;1.73;0.60;;;;;;;-142.37;100.00;59669.53;5015960;28;20038;-66
2021/07/18 05:40:06;;;;;;;0.88;0.50;;;;;;;-142.37;100.00;59669.53;5015713;28;20026;-67
2021/07/18 05:42:32;;;;;;;0.75;0.60;;;;;;;-142.37;100.00;59669.53;5015947;28;20021;-67
2021/07/18 05:44:58;;;;;;;0.70;0.40;;;;;;;-142.37;100.00;59669.53;5015541;28;20068;-67
2021/07/18 05:47:25;;;;;;;0.82;0.60;;;;;;;-142.37;100.00;59669.53;5015825;28;20026;-65
2021/07/18 05:49:51;;;;;;;1.08;0.40;;;;;;;-142.37;100.00;59669.53;5015711;28;20487;-66
2021/07/18 05:52:16;;;;;;;0.70;0.47;;;;;;;-142.37;100.00;59669.53;5015634;28;20025;-65
2021/07/18 05:54:41;;;;;;;0.88;0.68;;;;;;;-142.37;100.00;59669.53;5015444;28;20057;-65
2021/07/18 05:57:07;;;;;;;0.70;0.50;;;;;;;-142.37;100.00;59669.53;5015521;28;20025;-65
2021/07/18 05:59:32;;;;;;;2.20;0.55;;;;;;;-142.37;100.00;59669.53;5015438;28;20458;-65
2021/07/18 06:01:58;;;;;;;0.70;0.70;;;;;;;-142.37;100.00;59669.53;5015895;28;20527;-65
2021/07/18 06:04:24;;;;;;;0.75;0.50;;;;;;;-142.37;100.00;59669.53;5015326;28;20026;-66
2021/07/18 06:06:50;;;;;;;1.17;0.50;;;;;;;-142.37;100.00;59669.53;5015743;28;20059;-66
2021/07/18 06:09:15;;;;;;;2.85;0.60;;;;;;;-142.37;100.00;59669.53;5015526;28;20068;-66
2021/07/18 06:11:41;;;;;;;0.68;0.68;;;;;;;-142.37;100.00;59669.53;5015518;28;20056;-69
2021/07/18 06:14:06;;;;;;;0.50;0.30;;;;;;;-142.37;100.00;59669.53;5014616;28;20437;-68
2021/07/18 06:16:32;;;;;;;1.38;0.60;;;;;;;-142.37;100.00;59669.53;5015474;28;20514;-67
2021/07/18 06:18:57;;;;;;;0.73;0.50;;;;;;;-142.37;100.00;59669.53;5029617;28;20021;-67
2021/07/18 06:21:22;;;;;;;1.08;0.60;;;;;;;-142.37;100.00;59669.53;5035000;28;20460;-67
2021/07/18 06:23:49;;;;;;;0.82;0.60;;;;;;;-142.37;100.00;59669.53;5035081;28;20025;-65
2021/07/18 06:26:15;;;;;;;1.48;0.55;;;;;;;-142.37;100.00;59669.53;5034564;28;20040;-65
2021/07/18 06:28:40;;;;;;;0.47;0.32;;;;;;;-142.37;100.00;59669.53;5033465;28;20025;-66
2021/07/18 06:31:06;;;;;;;1.48;0.47;;;;;;;-142.37;100.00;59669.53;5034482;28;20031;-65
2021/07/18 06:33:31;;;;;;;0.98;0.43;;;;;;;-142.37;100.00;59669.53;5034947;28;20032;-66
2021/07/18 06:35:57;;;;;;;0.93;0.50;;;;;;;-142.37;100.00;59669.53;5034724;28;20104;-66
2021/07/18 06:38:22;;;;;;;0.85;0.50;;;;;;;-142.37;100.00;59669.53;5034649;28;20032;-66
2021/07/18 06:40:48;;;;;;;0.75;0.50;;;;;;;-142.37;100.00;59669.53;5034709;28;20377;-66
2021/07/18 06:43:14;;;;;;;0.73;0.50;;;;;;;-142.37;100.00;59669.53;5034169;28;20057;-66
2021/07/18 06:45:39;;;;;;;0.60;0.40;;;;;;;-142.37;100.00;59669.53;5034626;28;20052;-68
2021/07/18 06:48:05;;;;;;;0.40;0.40;;;;;;;-142.37;100.00;59669.53;5034440;28;20104;-68
2021/07/18 06:50:30;;;;;;;0.50;0.30;;;;;;;-142.37;100.00;59669.53;5034698;28;20342;-68
2021/07/18 06:52:55;;;;;;;1.13;0.40;;;;;;;-142.37;100.00;59669.53;5034197;28;20169;-67
2021/07/18 06:55:22;;;;;;;0.80;0.40;;;;;;;-142.37;100.00;59669.53;5033894;28;20028;-67
2021/07/18 06:57:52;;;;;;;0.95;0.57;;;;;;;-142.37;100.00;59669.53;5033155;28;20435;-67
2021/07/18 07:00:19;;;;;;;1.05;0.57;;;;;;;-142.37;100.00;59669.53;5032833;28;20109;-67
2021/07/18 07:02:45;;;;;;;1.88;0.40;;;;;;;-142.37;100.00;59669.53;5033011;28;20472;-65
2021/07/18 07:05:11;;;;;;;1.30;0.43;;;;;;;-142.37;100.00;59669.53;5031652;28;20044;-65
2021/07/18 07:07:37;;;;;;;1.08;0.38;;;;;;;-142.37;100.00;59669.53;5033030;28;20022;-64
2021/07/18 07:10:04;;;;;;;1.83;0.70;;;;;;;-142.37;100.00;59669.53;5033962;28;20022;-65
2021/07/18 07:12:29;;;;;;;1.02;0.60;;;;;;;-142.37;100.00;59669.53;5033907;28;20072;-65
2021/07/18 07:14:55;;;;;;;1.85;0.50;;;;;;;-142.37;100.00;59669.53;5033845;28;20069;-65
2021/07/18 07:17:20;;;;;;;0.93;0.35;;;;;;;-142.37;100.00;59669.53;5033706;28;20036;-65
2021/07/18 07:19:45;;;;;;;1.13;0.60;;;;;;;-142.37;100.00;59669.53;5034107;28;20030;-66
2021/07/18 07:22:11;;;;;;;1.38;0.70;;;;;;;-142.37;100.00;59669.53;5033814;28;20428;-66
2021/07/18 07:24:37;;;;;;;1.05;0.57;;;;;;;-142.37;100.00;59669.53;5033805;28;20472;-67
2021/07/18 07:27:02;;;;;;;0.70;0.43;;;;;;;-142.37;100.00;59669.53;5033689;28;20040;-66
2021/07/18 07:29:28;;;;;;;0.80;0.40;;;;;;;-142.37;100.00;59669.53;5033670;28;20372;-67
2021/07/18 07:31:53;;;;;;;0.32;0.32;;;;;;;-142.37;100.00;59669.53;5033651;28;20029;-69
2021/07/18 07:34:20;;;;;;;0.63;0.50;;;;;;;-142.37;100.00;59669.53;5032705;28;20025;-68
2021/07/18 07:36:46;;;;;;;0.65;0.40;;;;;;;-142.37;100.00;59669.53;5033363;28;20026;-66
2021/07/18 07:39:11;;;;;;;0.63;0.35;;;;;;;-142.37;100.00;59669.53;5030895;28;20018;-66
2021/07/18 07:41:37;;;;;;;1.73;0.70;;;;;;;-142.37;100.00;59669.53;5024361;28;20518;-65
2021/07/18 07:44:02;;;;;;;2.20;0.47;;;;;;;-142.37;100.00;59669.53;5013609;28;20057;-65
2021/07/18 07:46:29;;;;;;;1.40;0.45;;;;;;;-142.37;100.00;59669.53;5013860;28;20477;-64
2021/07/18 07:48:54;;;;;;;0.68;0.47;;;;;;;-142.37;100.00;59669.53;5014007;28;20032;-64
2021/07/18 07:51:20;;;;;;;0.73;0.40;;;;;;;-142.37;100.00;59669.53;5013428;28;20029;-64
2021/07/18 07:53:46;;;;;;;0.30;0.20;;;;;;;-142.37;100.00;59669.53;5027824;28;20472;-64
2021/07/18 07:56:11;;;;;;;1.60;0.55;;;;;;;-142.37;100.00;59669.53;5013982;28;20033;-64
2021/07/18 07:58:37;;;;;;;0.90;0.28;;;;;;;-142.37;100.00;59669.53;5013316;28;20021;-65
2021/07/18 08:01:03;;;;;;;0.60;0.35;;;;;;;-142.37;100.00;59669.53;5013319;28;20029;-65
2021/07/18 08:03:28;;;;;;;0.73;0.50;;;;;;;-142.37;100.00;59669.53;5014418;28;20033;-65
2021/07/18 08:05:54;;;;;;;1.25;0.50;;;;;;;-142.37;100.00;59669.53;5013665;28;20017;-66
2021/07/18 08:08:19;;;;;;;1.50;0.52;;;;;;;-142.37;100.00;59669.53;5013376;28;20026;-65
2021/07/18 08:10:44;;;;;;;1.67;0.45;;;;;;;-142.37;100.00;59669.53;5013490;28;20117;-65
2021/07/18 08:13:10;;;;;;;1.25;0.60;;;;;;;-142.37;100.00;59669.53;5013429;28;20026;-66
2021/07/18 08:15:36;;;;;;;1.05;0.55;;;;;;;-142.37;100.00;59669.53;5013243;28;20026;-66
2021/07/18 08:18:02;;;;;;;1.00;0.50;;;;;;;-142.37;100.00;59669.53;5021666;28;20087;-65
2021/07/18 08:20:29;;;;;;;1.13;0.50;;;;;;;-142.37;100.00;59669.53;5032944;28;20021;-64
2021/07/18 08:22:56;;;;;;;0.93;0.32;;;;;;;-142.37;100.00;59669.53;5032921;28;20659;-64
2021/07/18 08:25:24;;;;;;;1.42;0.38;;;;;;;-142.37;100.00;59669.53;5033102;28;20101;-64
2021/07/18 08:27:49;;;;;;;0.80;0.47;;;;;;;-142.37;100.00;59669.53;5033053;28;20048;-64
2021/07/18 08:30:15;;;;;;;1.15;0.32;;;;;;;-142.37;100.00;59669.53;5032920;28;20492;-64
2021/07/18 08:32:41;;;;;;;2.08;0.68;;;;;;;-142.37;100.00;59669.53;5033121;28;20108;-64
2021/07/18 08:35:08;;;;;;;0.38;0.20;;;;;;;-142.37;100.00;59669.53;5032790;28;20117;-64
2021/07/18 08:37:33;;;;;;;0.80;0.65;;;;;;;-142.37;100.00;59669.53;5032893;28;20048;-65
2021/07/18 08:40:00;;;;;;;0.52;0.40;;;;;;;-142.37;100.00;59669.53;5032737;28;20527;-66
2021/07/18 08:42:25;;;;;;;1.35;0.40;;;;;;;-142.37;100.00;59669.53;5032746;28;20108;-66
2021/07/18 08:44:51;;;;;;;0.20;0.20;;;;;;;-142.37;100.00;59669.53;5032650;28;20105;-65
2021/07/18 08:47:18;;;;;;;0.75;0.47;;;;;;;-142.37;100.00;59669.53;5040192;28;20100;-66
2021/07/18 08:49:43;;;;;;;0.88;0.60;;;;;;;-142.37;100.00;59669.53;5052836;28;20021;-66
2021/07/18 08:52:19;;;;;;;1.20;0.38;;;;;;;-142.37;100.00;59669.53;5055941;28;20025;-66
2021/07/18 08:54:45;;;;;;;0.60;0.40;;;;;;;-142.37;100.00;59669.53;5056548;28;20116;-65
2021/07/18 08:57:12;;;;;;;1.25;0.50;;;;;;;-142.37;100.00;59669.53;5056440;28;20618;-65
2021/07/18 08:59:38;;;;;;;1.02;0.50;;;;;;;-142.37;100.00;59669.53;5050142;22;20073;-67
2021/07/18 09:02:05;;;;;;;0.90;0.40;;;;;;;-142.37;100.00;59669.53;5036422;28;20057;-67
2021/07/18 09:04:30;;;;;;;1.00;0.70;;;;;;;-142.37;100.00;59669.53;5034360;28;20053;-67
2021/07/18 09:07:03;;;;;;;1.77;0.40;;;;;;;-142.37;100.00;59669.53;5036664;28;20057;-66
2021/07/18 09:09:30;;;;;;;1.25;0.35;;;;;;;-142.37;100.00;59669.53;5036486;28;20032;-66
2021/07/18 09:12:07;;;;;;;0.93;0.40;;;;;;;-142.37;100.00;59669.53;5035747;28;20068;-67
2021/07/18 09:14:36;;;;;;;0.70;0.40;;;;;;;-142.37;100.00;59669.53;5033410;28;20059;-67
2021/07/18 09:17:02;;;;;;;1.40;0.50;;;;;;;-142.37;100.00;59669.53;5016194;28;20457;-66
2021/07/18 09:19:33;;;;;;;0.82;0.40;;;;;;;-142.37;100.00;59669.53;5036130;28;20440;-66
2021/07/18 09:22:10;;;;;;;0.60;0.35;;;;;;;-142.37;100.00;59669.53;5036249;28;20068;-67
2021/07/18 09:25:03;;;;;;;1.45;0.40;;;;;;;-142.37;100.00;59669.53;5036232;28;20021;-67
2021/07/18 09:27:33;;;;;;;0.93;0.30;;;;;;;-142.37;100.00;59669.53;5032473;28;20065;-67
2021/07/18 09:30:17;;;;;;;0.30;0.30;;;;;;;-142.37;100.00;59669.53;5036007;28;20025;-67
2021/07/18 09:32:47;;;;;;;0.38;0.25;;;;;;;-142.37;100.00;59669.53;5036237;28;20026;-67
2021/07/18 09:35:16;;;;;;;1.55;0.60;;;;;;;-142.37;100.00;59669.53;5035779;28;20072;-67
2021/07/18 09:37:47;;;;;;;1.35;0.60;;;;;;;-142.37;100.00;59669.53;5035971;28;20033;-68
2021/07/18 09:40:17;;;;;;;1.35;0.40;;;;;;;-142.37;100.00;59669.53;5035596;28;20037;-68
2021/07/18 09:42:46;;;;;;;1.23;0.40;;;;;;;-142.37;100.00;59669.53;5036066;28;20037;-67
2021/07/18 09:45:11;;;;;;;0.40;0.30;;;;;;;-142.37;100.00;59669.53;5035822;28;20025;-67
2021/07/18 09:48:08;;;;;;;1.73;0.50;;;;;;;-142.37;100.00;59669.53;5035821;28;20084;-68
2021/07/18 09:50:42;;;;;;;0.57;0.32;;;;;;;-142.37;100.00;59669.53;5035762;28;20032;-68
2021/07/18 09:53:24;;;;;;;1.33;0.50;;;;;;;-142.37;100.00;59669.53;5035526;28;20120;-68
2021/07/18 09:56:01;;;;;;;0.30;0.30;;;;;;;-142.37;100.00;59669.53;5017067;28;20497;-67
2021/07/18 09:58:28;;;;;;;0.75;0.40;;;;;;;-142.37;100.00;59669.53;5029809;28;20389;-67
2021/07/18 10:00:55;;;;;;;1.00;0.43;;;;;;;-142.37;100.00;59669.53;5009580;28;20113;-68
2021/07/18 10:03:24;;;;;;;0.30;0.20;;;;;;;-142.37;100.00;59669.53;5002376;28;20026;-68
2021/07/18 10:06:05;;;;;;;1.63;0.35;;;;;;;-142.37;100.00;59669.53;5016295;28;20026;-67
2021/07/18 10:08:31;;;;;;;1.27;0.38;;;;;;;-142.37;100.00;59669.53;5015828;28;20492;-65
2021/07/18 10:10:56;;;;;;;0.68;0.30;;;;;;;-142.37;100.00;59669.53;5015815;28;20057;-65
2021/07/18 10:13:22;;;;;;;1.23;0.30;;;;;;;-142.37;100.00;59669.53;5015747;28;20022;-66
2021/07/18 10:15:48;;;;;;;0.20;0.20;;;;;;;-142.37;100.00;59669.53;5015770;28;20030;-67
2021/07/18 10:18:13;;;;;;;1.25;0.52;;;;;;;-142.37;100.00;59669.53;5005749;28;20022;-68
2021/07/18 10:20:39;;;;;;;0.60;0.30;;;;;;;-142.37;100.00;59669.53;4996013;28;20034;-68
2021/07/18 10:23:06;;;;;;;0.60;0.50;;;;;;;-142.37;100.00;59669.53;4996053;28;20023;-68
2021/07/18 10:25:34;;;;;;;0.43;0.30;;;;;;;-142.37;100.00;59669.53;4995986;28;20069;-67
2021/07/18 10:28:00;;;;;;;0.55;0.30;;;;;;;-142.37;100.00;59669.53;4995764;28;20062;-67
2021/07/18 10:30:28;;;;;;;1.02;0.60;;;;;;;-142.37;100.00;59669.53;4996034;28;20076;-67
2021/07/18 10:32:55;;;;;;;1.20;0.43;;;;;;;-142.37;100.00;59669.53;4996169;28;20093;-67
2021/07/18 10:35:25;;;;;;;0.50;0.50;;;;;;;-142.37;100.00;59669.53;4978303;28;20029;-67
2021/07/18 10:37:50;;;;;;;1.65;0.57;;;;;;;-142.37;100.00;59669.53;4995842;28;20500;-67
2021/07/18 10:40:21;;;;;;;0.57;0.38;;;;;;;-142.37;100.00;59669.53;4995580;28;20034;-67
2021/07/18 10:42:49;;;;;;;1.67;0.70;;;;;;;-142.37;100.00;59669.53;4995549;28;20470;-67
2021/07/18 10:45:26;;;;;;;1.17;0.35;;;;;;;-142.37;100.00;59669.53;4995666;28;20037;-67
2021/07/18 10:48:06;;;;;;;0.65;0.35;;;;;;;-142.37;100.00;59669.53;4995289;28;20453;-67
2021/07/18 10:50:57;;;;;;;1.80;0.30;;;;;;;-142.37;100.00;59669.53;4995427;28;20053;-67
2021/07/18 10:53:29;;;;;;;1.85;0.75;;;;;;;-142.37;100.00;59669.53;4995488;28;20026;-66
2021/07/18 10:55:56;;;;;;;0.98;0.25;;;;;;;-142.37;100.00;59669.53;4995543;28;20114;-67
2021/07/18 10:58:40;;;;;;;0.75;0.40;;;;;;;-142.37;100.00;59669.53;4994817;28;20101;-67
2021/07/18 11:01:11;;;;;;;1.67;0.40;;;;;;;-142.37;100.00;59669.53;4978049;28;20026;-66
2021/07/18 11:03:45;;;;;;;1.05;0.40;;;;;;;-142.37;100.00;59669.53;4995486;28;20026;-66
2021/07/18 11:06:29;;;;;;;0.82;0.25;;;;;;;-142.37;100.00;59669.53;4995209;28;20064;-67
2021/07/18 11:09:14;;;;;;;1.70;0.40;;;;;;;-142.37;100.00;59669.53;4977873;28;20429;-67